Time;durP1;ratioP1;P1;durP2;ratioP2;P2;SDS_P1;SDS_P2;PMS_P1;PMS_P2;Temp;Humidity;BMP_temperature;BMP_pressure;BME280_temperature;BME280_humidity;BME280_pressure;Samples;Min_cycle;Max_cycle;Signal;HPM_P1;HPM_P2
2021/12/18 00:00:57;;;;;;;;;;;2.50;99.90;;;;;;5075316;28;19969;-81
2021/12/18 00:03:22;;;;;;;;;;;2.50;99.90;;;;;;5073454;28;19908;-81
2021/12/18 00:05:48;;;;;;;;;;;2.30;99.90;;;;;;5073295;28;20288;-81
2021/12/18 00:08:13;;;;;;;;;;;2.30;99.90;;;;;;5052660;28;19956;-81
2021/12/18 00:10:39;;;;;;;;;;;2.30;99.90;;;;;;5057487;28;20003;-81
2021/12/18 00:13:04;;;;;;;;;;;2.30;99.90;;;;;;5054837;28;20062;-81
2021/12/18 00:15:30;;;;;;;;;;;2.20;99.90;;;;;;5067459;28;19916;-81
2021/12/18 00:17:56;;;;;;;;;;;2.20;99.90;;;;;;5073429;28;19952;-81
2021/12/18 00:20:24;;;;;;;;;;;2.20;99.90;;;;;;5054031;28;19917;-81
2021/12/18 00:22:49;;;;;;;;;;;2.20;99.90;;;;;;5053364;28;20369;-82
2021/12/18 00:25:15;;;;;;;;;;;2.30;99.90;;;;;;5081870;28;19919;-80
2021/12/18 00:27:40;;;;;;;;;;;2.30;99.90;;;;;;5074938;28;19999;-81
2021/12/18 00:30:07;;;;;;;;;;;2.30;99.90;;;;;;5074796;28;19909;-81
2021/12/18 00:32:32;;;;;;;;;;;2.30;99.90;;;;;;5069754;28;19916;-81
2021/12/18 00:34:58;;;;;;;;;;;2.30;99.90;;;;;;5055618;28;20266;-81
2021/12/18 00:37:24;;;;;;;;;;;2.20;99.90;;;;;;5057541;28;19952;-81
2021/12/18 00:39:57;;;;;;;;;;;2.20;99.90;;;;;;5068347;28;20475;-81
2021/12/18 00:42:40;;;;;;;;;;;2.20;99.90;;;;;;5075778;28;20366;-81
2021/12/18 00:45:10;;;;;;;;;;;2.20;99.90;;;;;;5075219;28;20739;-81
2021/12/18 00:47:35;;;;;;;;;;;2.30;99.90;;;;;;5075642;28;19913;-81
2021/12/18 00:50:02;;;;;;;;;;;2.20;99.90;;;;;;5075789;28;19951;-81
2021/12/18 00:52:28;;;;;;;;;;;2.20;99.90;;;;;;5075421;28;19908;-81
2021/12/18 00:54:53;;;;;;;;;;;2.20;99.90;;;;;;5075110;28;19958;-81
2021/12/18 00:57:19;;;;;;;;;;;2.20;99.90;;;;;;5075520;28;19908;-81
2021/12/18 00:59:44;;;;;;;;;;;2.20;99.90;;;;;;5073565;28;20008;-81
2021/12/18 01:02:10;;;;;;;;;;;2.20;99.90;;;;;;5073509;28;19915;-81
2021/12/18 01:04:35;;;;;;;;;;;2.20;99.90;;;;;;5073358;28;20348;-81
2021/12/18 01:07:01;;;;;;;;;;;2.20;99.90;;;;;;5049211;28;20273;-81
2021/12/18 01:12:18;;;;;;;;;;;2.20;99.90;;;;;;5052178;28;19921;-81
2021/12/18 01:24:50;;;;;;;;;;;2.20;99.90;;;;;;5074493;28;19909;-81
2021/12/18 01:27:16;;;;;;;;;;;2.10;99.90;;;;;;5074838;28;19915;-81
2021/12/18 01:29:41;;;;;;;;;;;2.00;99.90;;;;;;5075156;28;19916;-81
2021/12/18 01:32:07;;;;;;;;;;;2.00;99.90;;;;;;5072704;28;19908;-81
2021/12/18 01:34:33;;;;;;;;;;;2.00;99.90;;;;;;5073718;28;19912;-81
2021/12/18 01:36:58;;;;;;;;;;;2.00;99.90;;;;;;5059177;28;19909;-81
2021/12/18 01:39:24;;;;;;;;;;;2.00;99.90;;;;;;5054758;28;19913;-81
2021/12/18 01:52:36;;;;;;;;;;;2.00;99.90;;;;;;5055037;28;19916;-81
2021/12/18 01:55:02;;;;;;;;;;;2.00;99.90;;;;;;5053035;28;20281;-81
2021/12/18 01:57:28;;;;;;;;;;;2.00;99.90;;;;;;5055112;28;19916;-81
2021/12/18 01:59:54;;;;;;;;;;;2.00;99.90;;;;;;5058188;28;19908;-81
2021/12/18 02:02:20;;;;;;;;;;;2.10;99.90;;;;;;5074214;28;20381;-81
2021/12/18 02:04:46;;;;;;;;;;;2.10;99.90;;;;;;5073471;28;19909;-81
2021/12/18 02:07:13;;;;;;;;;;;2.00;99.90;;;;;;5063375;28;19978;-81
2021/12/18 02:12:10;;;;;;;;;;;1.90;99.90;;;;;;5054590;28;19920;-81
2021/12/18 02:19:56;;;;;;;;;;;1.90;99.90;;;;;;5054911;28;20003;-81
2021/12/18 02:22:22;;;;;;;;;;;1.90;99.90;;;;;;5054678;28;19916;-81
2021/12/18 02:24:48;;;;;;;;;;;1.80;99.90;;;;;;5052337;28;19909;-81
2021/12/18 02:27:13;;;;;;;;;;;1.90;99.90;;;;;;5053097;28;20243;-81
2021/12/18 02:29:40;;;;;;;;;;;1.80;99.90;;;;;;5054745;28;19916;-80
2021/12/18 02:32:06;;;;;;;;;;;1.90;99.90;;;;;;5053121;28;19975;-81
2021/12/18 02:34:33;;;;;;;;;;;1.90;99.90;;;;;;5054021;28;19913;-81
2021/12/18 02:37:05;;;;;;;;;;;1.90;99.90;;;;;;5056498;28;20435;-81
2021/12/18 02:42:13;;;;;;;;;;;1.90;99.90;;;;;;5048994;28;19909;-81
2021/12/18 02:44:41;;;;;;;;;;;1.90;99.90;;;;;;5055255;28;19912;-81
2021/12/18 02:47:08;;;;;;;;;;;1.90;99.90;;;;;;5069003;28;20382;-81
2021/12/18 02:49:34;;;;;;;;;;;1.90;99.90;;;;;;5077533;28;20064;-80
2021/12/18 02:51:59;;;;;;;;;;;1.80;99.90;;;;;;5068303;28;19909;-81
2021/12/18 02:54:26;;;;;;;;;;;1.80;99.90;;;;;;5054134;28;19920;-81
2021/12/18 02:56:52;;;;;;;;;;;1.80;99.90;;;;;;5056091;28;19959;-81
2021/12/18 02:59:17;;;;;;;;;;;1.80;99.90;;;;;;5058242;28;19908;-80
2021/12/18 03:01:43;;;;;;;;;;;1.80;99.90;;;;;;5058617;28;19920;-80
2021/12/18 03:04:31;;;;;;;;;;;1.80;99.90;;;;;;5060095;28;19995;-80
2021/12/18 03:07:00;;;;;;;;;;;1.80;99.90;;;;;;5062087;28;19916;-80
2021/12/18 03:25:16;;;;;;;;;;;1.60;99.90;;;;;;5055904;28;20265;-80
2021/12/18 03:27:42;;;;;;;;;;;1.50;99.90;;;;;;5055582;28;19915;-80
2021/12/18 03:30:08;;;;;;;;;;;1.50;99.90;;;;;;5056042;28;20359;-80
2021/12/18 03:32:33;;;;;;;;;;;1.50;99.90;;;;;;5066246;28;19915;-80
2021/12/18 03:34:59;;;;;;;;;;;1.50;99.90;;;;;;5063863;28;20438;-80
2021/12/18 03:37:24;;;;;;;;;;;1.50;99.90;;;;;;5055641;28;19959;-81
2021/12/18 03:39:50;;;;;;;;;;;1.50;99.90;;;;;;5060527;28;19909;-81
2021/12/18 03:42:16;;;;;;;;;;;1.50;99.90;;;;;;5054997;28;19917;-80
2021/12/18 03:44:42;;;;;;;;;;;1.50;99.90;;;;;;5061722;28;19954;-80
2021/12/18 03:47:07;;;;;;;;;;;1.40;99.90;;;;;;5054562;28;19912;-80
2021/12/18 03:49:33;;;;;;;;;;;1.40;99.90;;;;;;5056042;28;19909;-80
2021/12/18 03:51:58;;;;;;;;;;;1.50;99.90;;;;;;5056019;28;20496;-80
2021/12/18 03:54:24;;;;;;;;;;;1.40;99.90;;;;;;5055278;28;19917;-80
2021/12/18 03:56:50;;;;;;;;;;;1.50;99.90;;;;;;5055317;28;19912;-80
2021/12/18 03:59:15;;;;;;;;;;;1.40;99.90;;;;;;5056124;28;19916;-80
2021/12/18 04:01:41;;;;;;;;;;;1.40;99.90;;;;;;5054452;28;19909;-80
2021/12/18 04:04:07;;;;;;;;;;;1.40;99.90;;;;;;5055374;28;19996;-80
2021/12/18 04:06:32;;;;;;;;;;;1.30;99.90;;;;;;5054596;28;19916;-80
2021/12/18 04:08:58;;;;;;;;;;;1.20;99.90;;;;;;5055702;28;19984;-80
2021/12/18 04:11:24;;;;;;;;;;;1.30;99.90;;;;;;5054118;28;19921;-80
2021/12/18 04:13:49;;;;;;;;;;;1.30;99.90;;;;;;5057857;28;19958;-80
2021/12/18 04:16:15;;;;;;;;;;;1.30;99.90;;;;;;5055846;28;19912;-80
2021/12/18 04:18:40;;;;;;;;;;;1.20;99.90;;;;;;5054663;28;20003;-80
2021/12/18 04:21:06;;;;;;;;;;;1.10;99.90;;;;;;5054496;28;20254;-80
2021/12/18 04:23:32;;;;;;;;;;;1.20;99.90;;;;;;5055366;28;20373;-80
2021/12/18 04:25:58;;;;;;;;;;;1.10;99.90;;;;;;5055819;28;20046;-80
2021/12/18 04:28:23;;;;;;;;;;;1.10;99.90;;;;;;5055838;28;19909;-80
2021/12/18 04:30:50;;;;;;;;;;;1.20;99.90;;;;;;5054371;28;19909;-80
2021/12/18 04:33:15;;;;;;;;;;;1.20;99.90;;;;;;5054361;28;19923;-80
2021/12/18 04:35:41;;;;;;;;;;;1.20;99.90;;;;;;5058029;28;19908;-80
2021/12/18 04:38:06;;;;;;;;;;;1.10;99.90;;;;;;5057907;28;19909;-80
2021/12/18 04:40:32;;;;;;;;;;;1.00;99.90;;;;;;5059305;28;19935;-80
2021/12/18 04:42:58;;;;;;;;;;;1.00;99.90;;;;;;5057572;28;19955;-80
2021/12/18 04:45:23;;;;;;;;;;;1.00;99.90;;;;;;5058085;28;19932;-80
2021/12/18 04:47:49;;;;;;;;;;;0.90;99.90;;;;;;5057165;28;19909;-80
2021/12/18 04:50:15;;;;;;;;;;;0.90;99.90;;;;;;5058372;28;19919;-81
2021/12/18 04:52:40;;;;;;;;;;;0.90;99.90;;;;;;5058859;28;19909;-81
2021/12/18 04:55:06;;;;;;;;;;;0.90;99.90;;;;;;5058080;28;20325;-80
2021/12/18 04:57:31;;;;;;;;;;;0.90;99.90;;;;;;5058219;28;19912;-80
2021/12/18 04:59:57;;;;;;;;;;;0.80;99.90;;;;;;5057914;28;20100;-80
2021/12/18 05:02:33;;;;;;;;;;;0.70;99.90;;;;;;5058023;28;19909;-80
2021/12/18 05:04:58;;;;;;;;;;;0.80;99.90;;;;;;5057760;28;19976;-80
2021/12/18 05:07:24;;;;;;;;;;;0.80;99.90;;;;;;5058045;28;19944;-80
2021/12/18 05:09:50;;;;;;;;;;;0.70;99.90;;;;;;5057360;28;19908;-81
2021/12/18 05:12:15;;;;;;;;;;;0.70;99.90;;;;;;5057355;28;20278;-80
2021/12/18 05:14:41;;;;;;;;;;;0.60;99.90;;;;;;5056863;28;19913;-80
2021/12/18 05:17:06;;;;;;;;;;;0.60;99.90;;;;;;5056794;28;20361;-80
2021/12/18 05:19:32;;;;;;;;;;;0.70;99.90;;;;;;5057659;28;19916;-80
2021/12/18 05:21:57;;;;;;;;;;;0.60;99.90;;;;;;5057705;28;20464;-80
2021/12/18 05:24:23;;;;;;;;;;;0.60;99.90;;;;;;5056817;28;19909;-80
2021/12/18 05:26:48;;;;;;;;;;;0.60;99.90;;;;;;5058643;28;19948;-80
2021/12/18 05:29:14;;;;;;;;;;;0.50;99.90;;;;;;5059603;28;19915;-80
2021/12/18 05:31:39;;;;;;;;;;;0.40;99.90;;;;;;5068395;28;19943;-80
2021/12/18 05:34:05;;;;;;;;;;;0.50;99.90;;;;;;5056931;28;19917;-80
2021/12/18 05:38:59;;;;;;;;;;;0.50;99.90;;;;;;5057084;28;19920;-80
2021/12/18 05:41:25;;;;;;;;;;;0.60;99.90;;;;;;5055223;28;19913;-80
2021/12/18 05:43:50;;;;;;;;;;;0.60;99.90;;;;;;5055828;28;19909;-80
2021/12/18 05:46:16;;;;;;;;;;;0.70;99.90;;;;;;5056601;28;19931;-80
2021/12/18 05:48:41;;;;;;;;;;;0.60;99.90;;;;;;5057034;28;19909;-81
2021/12/18 05:51:07;;;;;;;;;;;0.60;99.90;;;;;;5056650;28;19955;-80
2021/12/18 05:53:32;;;;;;;;;;;0.50;99.90;;;;;;5054970;28;20104;-80
2021/12/18 05:55:58;;;;;;;;;;;0.50;99.90;;;;;;5057163;28;19961;-80
2021/12/18 05:58:23;;;;;;;;;;;0.40;99.90;;;;;;5056929;28;20377;-80
2021/12/18 06:00:49;;;;;;;;;;;0.50;99.90;;;;;;5057145;28;19909;-80
2021/12/18 06:03:14;;;;;;;;;;;0.50;99.90;;;;;;5054853;28;19919;-80
2021/12/18 06:05:40;;;;;;;;;;;0.60;99.90;;;;;;5056934;28;19908;-80
2021/12/18 06:08:10;;;;;;;;;;;0.60;99.90;;;;;;5055023;28;20328;-81
2021/12/18 06:10:37;;;;;;;;;;;0.60;99.90;;;;;;5057376;28;19913;-81
2021/12/18 06:13:03;;;;;;;;;;;0.60;99.90;;;;;;5059774;28;19916;-81
2021/12/18 06:15:29;;;;;;;;;;;0.60;99.90;;;;;;5057245;28;19913;-80
2021/12/18 06:17:55;;;;;;;;;;;0.60;99.90;;;;;;5056699;28;19966;-80
2021/12/18 06:20:21;;;;;;;;;;;0.60;99.90;;;;;;5055994;28;19908;-80
2021/12/18 06:22:47;;;;;;;;;;;0.40;99.90;;;;;;5055033;28;19913;-80
2021/12/18 06:25:12;;;;;;;;;;;0.50;99.90;;;;;;5054668;28;19909;-81
2021/12/18 06:27:38;;;;;;;;;;;0.50;99.90;;;;;;5055394;28;20007;-81
2021/12/18 06:30:04;;;;;;;;;;;0.40;99.90;;;;;;5055795;28;19916;-80
2021/12/18 06:32:30;;;;;;;;;;;0.40;99.90;;;;;;5055906;28;20061;-80
2021/12/18 06:34:55;;;;;;;;;;;0.40;99.90;;;;;;5054486;28;20111;-80
2021/12/18 06:37:21;;;;;;;;;;;0.30;99.90;;;;;;5055901;28;20270;-80
2021/12/18 06:39:46;;;;;;;;;;;0.30;99.90;;;;;;5056281;28;20358;-80
2021/12/18 06:42:11;;;;;;;;;;;0.30;99.90;;;;;;5055216;28;19919;-81
2021/12/18 06:44:37;;;;;;;;;;;0.30;99.90;;;;;;5054489;28;19908;-80
2021/12/18 06:47:03;;;;;;;;;;;0.40;99.90;;;;;;5054951;28;19909;-80
2021/12/18 06:49:28;;;;;;;;;;;0.30;99.90;;;;;;5055676;28;19935;-80
2021/12/18 06:51:54;;;;;;;;;;;0.30;99.90;;;;;;5052794;28;20389;-80
2021/12/18 06:54:19;;;;;;;;;;;0.20;99.90;;;;;;5054592;28;19935;-80
2021/12/18 06:56:45;;;;;;;;;;;0.30;99.90;;;;;;5054633;28;20389;-80
2021/12/18 06:59:10;;;;;;;;;;;0.30;99.90;;;;;;5052692;28;19913;-80
2021/12/18 07:01:36;;;;;;;;;;;0.40;99.90;;;;;;5052460;28;19916;-80
2021/12/18 07:04:02;;;;;;;;;;;0.30;99.90;;;;;;5053291;28;20000;-80
2021/12/18 07:06:28;;;;;;;;;;;0.40;99.90;;;;;;5053506;28;19919;-80
2021/12/18 07:08:54;;;;;;;;;;;0.30;99.90;;;;;;5053392;28;19909;-80
2021/12/18 07:11:19;;;;;;;;;;;0.40;99.90;;;;;;5057961;28;19963;-80
2021/12/18 07:13:45;;;;;;;;;;;0.40;99.90;;;;;;5053766;28;19967;-80
2021/12/18 07:16:10;;;;;;;;;;;0.40;99.90;;;;;;5052574;28;19915;-80
2021/12/18 07:18:36;;;;;;;;;;;0.50;99.90;;;;;;5051757;28;19909;-80
2021/12/18 07:21:01;;;;;;;;;;;0.40;99.90;;;;;;5051969;28;20289;-80
2021/12/18 07:23:27;;;;;;;;;;;0.40;99.90;;;;;;5056028;28;20362;-80
2021/12/18 07:25:52;;;;;;;;;;;0.50;99.90;;;;;;5055193;28;19909;-80
2021/12/18 07:28:18;;;;;;;;;;;0.60;99.90;;;;;;5055817;28;20369;-80
2021/12/18 07:30:43;;;;;;;;;;;0.50;99.90;;;;;;5056182;28;19931;-80
2021/12/18 07:33:11;;;;;;;;;;;0.50;99.90;;;;;;5056104;28;19913;-80
2021/12/18 07:35:37;;;;;;;;;;;0.50;99.90;;;;;;5062672;28;20340;-80
2021/12/18 07:38:03;;;;;;;;;;;0.50;99.90;;;;;;5078532;28;20293;-80
2021/12/18 07:40:29;;;;;;;;;;;0.40;99.90;;;;;;5077830;28;19909;-80
2021/12/18 07:42:54;;;;;;;;;;;0.50;99.90;;;;;;5060386;28;20553;-80
2021/12/18 07:45:20;;;;;;;;;;;0.50;99.90;;;;;;5062996;28;19920;-80
2021/12/18 07:47:45;;;;;;;;;;;0.30;99.90;;;;;;5059195;28;20392;-80
2021/12/18 07:50:18;;;;;;;;;;;0.20;99.90;;;;;;5059494;28;19913;-80
2021/12/18 07:52:43;;;;;;;;;;;0.20;99.90;;;;;;5059627;28;19909;-80
2021/12/18 07:55:09;;;;;;;;;;;0.30;99.90;;;;;;5057450;28;19913;-80
2021/12/18 07:57:35;;;;;;;;;;;0.40;99.90;;;;;;5057992;28;19916;-80
2021/12/18 08:00:00;;;;;;;;;;;0.50;99.90;;;;;;5057719;28;19909;-80
2021/12/18 08:02:26;;;;;;;;;;;0.60;99.90;;;;;;5057858;28;19913;-80
2021/12/18 08:04:51;;;;;;;;;;;0.50;99.90;;;;;;5056748;28;19909;-80
2021/12/18 08:07:17;;;;;;;;;;;0.60;99.90;;;;;;5058835;28;20356;-80
2021/12/18 08:09:42;;;;;;;;;;;0.60;99.90;;;;;;5071708;28;19908;-80
2021/12/18 08:12:08;;;;;;;;;;;0.60;99.90;;;;;;5078289;28;19964;-80
2021/12/18 08:14:34;;;;;;;;;;;0.60;99.90;;;;;;5076432;28;19940;-80
2021/12/18 08:16:59;;;;;;;;;;;0.60;99.90;;;;;;5076697;28;19908;-80
2021/12/18 08:19:25;;;;;;;;;;;0.60;99.90;;;;;;5076558;28;19942;-80
2021/12/18 08:21:50;;;;;;;;;;;0.50;99.90;;;;;;5076579;28;19908;-80
2021/12/18 08:24:16;;;;;;;;;;;0.60;99.90;;;;;;5076392;28;19908;-80
2021/12/18 08:26:41;;;;;;;;;;;0.60;99.90;;;;;;5078136;28;20403;-80
2021/12/18 08:29:07;;;;;;;;;;;0.70;99.90;;;;;;5078032;28;19908;-80
2021/12/18 08:31:32;;;;;;;;;;;0.60;99.90;;;;;;5051782;28;19915;-80
2021/12/18 08:33:58;;;;;;;;;;;0.60;99.90;;;;;;5056604;28;19963;-80
2021/12/18 08:36:23;;;;;;;;;;;0.70;99.90;;;;;;5058320;28;19909;-80
2021/12/18 08:38:49;;;;;;;;;;;0.60;99.90;;;;;;5057539;28;19991;-80
2021/12/18 08:41:16;;;;;;;;;;;0.70;99.90;;;;;;5057875;28;19915;-80
2021/12/18 08:43:41;;;;;;;;;;;0.70;99.90;;;;;;5058366;28;19909;-80
2021/12/18 08:46:07;;;;;;;;;;;0.80;99.90;;;;;;5059364;28;19931;-80
2021/12/18 08:48:33;;;;;;;;;;;0.90;99.90;;;;;;5057412;28;19917;-80
2021/12/18 08:50:58;;;;;;;;;;;0.90;99.90;;;;;;5056287;28;20288;-80
2021/12/18 08:53:24;;;;;;;;;;;0.90;99.90;;;;;;5058527;28;20342;-80
2021/12/18 08:55:49;;;;;;;;;;;1.00;99.90;;;;;;5058453;28;19952;-80
2021/12/18 08:58:17;;;;;;;;;;;0.90;99.90;;;;;;5058363;28;19913;-80
2021/12/18 09:00:42;;;;;;;;;;;0.90;99.90;;;;;;5057289;28;19919;-80
2021/12/18 09:03:08;;;;;;;;;;;1.00;99.90;;;;;;5058125;28;20258;-80
2021/12/18 09:05:34;;;;;;;;;;;1.10;99.90;;;;;;5058128;28;19978;-80
2021/12/18 09:08:00;;;;;;;;;;;1.10;99.90;;;;;;5056857;28;19908;-80
2021/12/18 09:10:25;;;;;;;;;;;1.10;99.90;;;;;;5056328;28;20003;-80
2021/12/18 09:12:51;;;;;;;;;;;1.20;99.90;;;;;;5057131;28;19928;-80
2021/12/18 09:15:17;;;;;;;;;;;1.30;99.90;;;;;;5056142;28;20418;-80
2021/12/18 09:17:42;;;;;;;;;;;1.20;99.90;;;;;;5056518;28;19908;-80
2021/12/18 09:20:08;;;;;;;;;;;1.10;99.90;;;;;;5057477;28;19940;-80
2021/12/18 09:22:34;;;;;;;;;;;1.20;99.90;;;;;;5055947;28;20238;-80
2021/12/18 09:24:59;;;;;;;;;;;1.30;99.90;;;;;;5056854;28;19915;-80
2021/12/18 09:27:25;;;;;;;;;;;1.30;99.90;;;;;;5063654;28;19912;-80
2021/12/18 09:29:50;;;;;;;;;;;1.30;99.90;;;;;;5076844;28;19964;-80
2021/12/18 09:32:16;;;;;;;;;;;1.00;99.90;;;;;;5076470;28;19913;-80
2021/12/18 09:34:41;;;;;;;;;;;0.90;99.90;;;;;;5074677;28;19919;-80
2021/12/18 09:37:07;;;;;;;;;;;1.00;99.90;;;;;;5076285;28;19908;-81
2021/12/18 09:39:33;;;;;;;;;;;1.20;99.90;;;;;;5075345;28;19915;-81
2021/12/18 09:41:58;;;;;;;;;;;1.20;99.90;;;;;;5066985;28;19915;-81
2021/12/18 09:44:25;;;;;;;;;;;1.20;99.90;;;;;;5056757;28;19909;-81
2021/12/18 09:46:52;;;;;;;;;;;1.30;99.90;;;;;;5057643;28;19913;-81
2021/12/18 09:49:17;;;;;;;;;;;1.30;99.90;;;;;;5056547;28;19909;-81
2021/12/18 09:51:43;;;;;;;;;;;1.20;99.90;;;;;;5057069;28;19916;-81
2021/12/18 09:54:08;;;;;;;;;;;1.20;99.90;;;;;;5055972;28;19913;-81
2021/12/18 09:56:34;;;;;;;;;;;1.10;99.90;;;;;;5056304;28;19908;-81
2021/12/18 09:58:59;;;;;;;;;;;1.20;99.90;;;;;;5054630;28;19908;-81
2021/12/18 10:01:25;;;;;;;;;;;1.30;99.90;;;;;;5056355;28;19920;-81
2021/12/18 10:03:51;;;;;;;;;;;1.30;99.90;;;;;;5055427;28;20249;-81
2021/12/18 10:06:39;;;;;;;;;;;1.30;99.90;;;;;;5073936;28;19908;-81
2021/12/18 10:09:25;;;;;;;;;;;1.30;99.90;;;;;;5068514;28;19913;-81
2021/12/18 10:11:55;;;;;;;;;;;1.50;99.90;;;;;;5048288;28;19917;-81
2021/12/18 10:14:37;;;;;;;;;;;1.70;99.90;;;;;;5053972;28;19913;-81
2021/12/18 10:17:17;;;;;;;;;;;1.50;99.90;;;;;;5055696;28;20201;-81
2021/12/18 10:19:42;;;;;;;;;;;1.60;99.90;;;;;;5056301;28;19963;-81
2021/12/18 10:22:09;;;;;;;;;;;1.50;99.90;;;;;;5056424;28;19913;-80
2021/12/18 10:24:37;;;;;;;;;;;1.40;99.90;;;;;;5056450;28;19948;-80
2021/12/18 10:27:15;;;;;;;;;;;1.40;99.90;;;;;;5057368;28;19908;-81
2021/12/18 10:29:41;;;;;;;;;;;1.60;99.90;;;;;;5056647;28;20267;-81
2021/12/18 10:32:08;;;;;;;;;;;1.60;99.90;;;;;;5056429;28;19909;-80
2021/12/18 10:34:34;;;;;;;;;;;1.70;99.90;;;;;;5056425;28;20007;-81
2021/12/18 10:37:09;;;;;;;;;;;1.70;99.90;;;;;;5055862;28;20013;-81
2021/12/18 10:39:35;;;;;;;;;;;1.30;99.90;;;;;;5055878;28;20365;-81
2021/12/18 10:42:19;;;;;;;;;;;1.50;99.90;;;;;;5055914;28;19992;-81
2021/12/18 10:44:54;;;;;;;;;;;1.70;99.90;;;;;;5056358;28;19909;-81
2021/12/18 10:47:20;;;;;;;;;;;1.80;99.90;;;;;;5057173;28;19919;-80
2021/12/18 10:49:45;;;;;;;;;;;1.60;99.90;;;;;;5056952;28;19908;-80
2021/12/18 10:52:11;;;;;;;;;;;1.80;99.90;;;;;;5054744;28;19952;-81
2021/12/18 10:54:37;;;;;;;;;;;2.10;99.90;;;;;;5055104;28;20395;-81
2021/12/18 10:57:02;;;;;;;;;;;2.00;99.90;;;;;;5056479;28;19909;-80
2021/12/18 10:59:34;;;;;;;;;;;1.90;99.90;;;;;;5056461;28;19917;-81
2021/12/18 11:02:11;;;;;;;;;;;1.80;99.90;;;;;;5056995;28;19908;-80
2021/12/18 11:04:39;;;;;;;;;;;1.60;99.90;;;;;;5074115;28;19915;-81
2021/12/18 11:07:17;;;;;;;;;;;1.70;99.90;;;;;;5077687;28;20374;-81
2021/12/18 11:09:49;;;;;;;;;;;1.90;99.90;;;;;;5078424;28;20395;-81
2021/12/18 11:14:58;;;;;;;;;;;1.80;99.90;;;;;;5060522;28;19920;-80
2021/12/18 11:17:24;;;;;;;;;;;2.00;99.90;;;;;;5062923;28;19913;-81
2021/12/18 11:19:50;;;;;;;;;;;1.90;99.90;;;;;;5057932;28;19936;-80
2021/12/18 11:22:16;;;;;;;;;;;1.80;99.90;;;;;;5060111;28;19948;-81
2021/12/18 11:24:59;;;;;;;;;;;1.90;99.90;;;;;;5068368;28;19913;-81
2021/12/18 11:27:25;;;;;;;;;;;2.10;99.90;;;;;;5078458;28;20167;-81
2021/12/18 11:29:59;;;;;;;;;;;2.20;99.90;;;;;;5073790;28;19931;-81
2021/12/18 11:32:32;;;;;;;;;;;2.10;99.90;;;;;;5058321;28;19908;-81
2021/12/18 11:35:01;;;;;;;;;;;2.20;99.90;;;;;;5058863;28;19912;-81
2021/12/18 11:37:31;;;;;;;;;;;2.30;99.90;;;;;;5059406;28;20004;-81
2021/12/18 11:39:58;;;;;;;;;;;2.30;99.90;;;;;;5071437;28;19912;-81
2021/12/18 11:42:30;;;;;;;;;;;2.40;99.90;;;;;;5065897;28;19909;-81
2021/12/18 11:44:57;;;;;;;;;;;2.00;99.90;;;;;;5056817;28;19909;-80
2021/12/18 11:47:22;;;;;;;;;;;2.30;99.90;;;;;;5058069;28;19952;-81
2021/12/18 11:49:48;;;;;;;;;;;2.20;99.90;;;;;;5058752;28;20266;-81
2021/12/18 11:52:14;;;;;;;;;;;2.20;99.90;;;;;;5057225;28;19909;-81
2021/12/18 11:54:40;;;;;;;;;;;2.10;99.90;;;;;;5058151;28;19912;-81
2021/12/18 11:57:05;;;;;;;;;;;1.90;99.90;;;;;;5056798;28;19931;-81
2021/12/18 11:59:57;;;;;;;;;;;2.10;99.90;;;;;;5059308;28;19931;-81
2021/12/18 12:02:41;;;;;;;;;;;2.30;99.90;;;;;;5056087;28;19909;-81
2021/12/18 12:05:07;;;;;;;;;;;2.30;99.90;;;;;;5056562;28;19950;-81
2021/12/18 12:07:32;;;;;;;;;;;2.40;99.90;;;;;;5058590;28;19908;-81
2021/12/18 12:10:10;;;;;;;;;;;2.50;99.90;;;;;;5057272;28;19908;-81
2021/12/18 12:12:55;;;;;;;;;;;2.40;99.90;;;;;;5057962;28;19967;-81
2021/12/18 12:15:22;;;;;;;;;;;2.40;99.90;;;;;;5054192;28;19963;-81
2021/12/18 12:17:54;;;;;;;;;;;2.50;99.90;;;;;;5058189;28;19908;-81
2021/12/18 12:20:40;;;;;;;;;;;2.40;99.90;;;;;;5061218;28;19966;-81
2021/12/18 12:23:07;;;;;;;;;;;2.50;99.90;;;;;;5076496;28;19988;-81
2021/12/18 12:25:32;;;;;;;;;;;2.50;99.90;;;;;;5075640;28;19908;-81
2021/12/18 12:28:06;;;;;;;;;;;2.60;99.90;;;;;;5075983;28;20167;-81
2021/12/18 12:30:36;;;;;;;;;;;2.60;99.90;;;;;;5075643;28;19936;-81
2021/12/18 12:33:03;;;;;;;;;;;2.90;99.90;;;;;;5076534;28;19909;-81
2021/12/18 12:35:29;;;;;;;;;;;2.90;99.90;;;;;;5075408;28;19908;-81
2021/12/18 12:37:55;;;;;;;;;;;3.00;99.90;;;;;;5074045;28;19909;-81
2021/12/18 12:40:28;;;;;;;;;;;2.90;99.90;;;;;;5073566;28;19920;-81
2021/12/18 12:43:22;;;;;;;;;;;2.90;99.90;;;;;;5061536;28;19909;-81
2021/12/18 12:45:51;;;;;;;;;;;2.80;99.90;;;;;;5053747;28;20380;-81
2021/12/18 12:48:17;;;;;;;;;;;2.80;99.90;;;;;;5054177;28;19908;-81
2021/12/18 12:50:43;;;;;;;;;;;2.70;99.90;;;;;;5056279;28;20149;-81
2021/12/18 12:53:10;;;;;;;;;;;2.60;99.90;;;;;;5055707;28;20357;-81
2021/12/18 12:55:46;;;;;;;;;;;2.90;99.90;;;;;;5054834;28;19919;-81
2021/12/18 12:58:16;;;;;;;;;;;2.80;99.90;;;;;;5054406;28;19908;-81
2021/12/18 13:00:42;;;;;;;;;;;2.50;99.90;;;;;;5054315;28;20316;-81
2021/12/18 13:03:13;;;;;;;;;;;2.50;99.90;;;;;;5055575;28;20285;-80
2021/12/18 13:05:46;;;;;;;;;;;2.40;99.90;;;;;;5055613;28;19913;-81
2021/12/18 13:08:12;;;;;;;;;;;2.50;99.90;;;;;;5068091;28;19916;-81
2021/12/18 13:10:38;;;;;;;;;;;2.60;99.90;;;;;;5075882;28;20381;-81
2021/12/18 13:13:05;;;;;;;;;;;2.70;99.90;;;;;;5074240;28;19946;-81
2021/12/18 13:15:45;;;;;;;;;;;2.30;99.90;;;;;;5060626;28;19908;-81
2021/12/18 13:18:10;;;;;;;;;;;2.30;99.90;;;;;;5051227;28;20324;-81
2021/12/18 13:20:41;;;;;;;;;;;2.50;99.90;;;;;;5056469;28;19995;-81
2021/12/18 13:23:07;;;;;;;;;;;2.60;99.90;;;;;;5063573;28;19947;-80
2021/12/18 13:25:33;;;;;;;;;;;2.70;99.90;;;;;;5076826;28;19913;-80
2021/12/18 13:28:03;;;;;;;;;;;2.70;99.90;;;;;;5076402;28;19915;-80
2021/12/18 13:30:28;;;;;;;;;;;2.40;99.90;;;;;;5056221;28;19916;-80
2021/12/18 13:32:54;;;;;;;;;;;2.20;99.90;;;;;;5057291;28;20293;-81
2021/12/18 13:35:20;;;;;;;;;;;2.20;99.90;;;;;;5057037;28;20228;-81
2021/12/18 13:37:55;;;;;;;;;;;2.30;99.90;;;;;;5056080;28;19928;-80
2021/12/18 13:40:20;;;;;;;;;;;2.30;99.90;;;;;;5052216;28;19913;-80
2021/12/18 13:42:45;;;;;;;;;;;2.30;99.90;;;;;;5056466;28;19940;-80
2021/12/18 13:45:11;;;;;;;;;;;2.30;99.90;;;;;;5056394;28;19916;-81
2021/12/18 13:47:38;;;;;;;;;;;2.20;99.90;;;;;;5056013;28;20262;-80
2021/12/18 13:50:07;;;;;;;;;;;2.20;99.90;;;;;;5055932;28;19909;-81
2021/12/18 13:52:38;;;;;;;;;;;2.00;99.90;;;;;;5054009;28;19919;-82
2021/12/18 13:55:22;;;;;;;;;;;1.90;99.90;;;;;;5054113;28;19913;-81
2021/12/18 13:57:57;;;;;;;;;;;1.80;99.90;;;;;;5065812;28;19915;-81
2021/12/18 14:00:23;;;;;;;;;;;1.90;99.90;;;;;;5052394;28;19915;-81
2021/12/18 14:02:48;;;;;;;;;;;1.70;99.90;;;;;;5053735;28;19909;-81
2021/12/18 14:05:14;;;;;;;;;;;1.50;99.90;;;;;;5053484;28;20302;-81
2021/12/18 14:07:40;;;;;;;;;;;1.60;99.90;;;;;;5053496;28;20366;-80
2021/12/18 14:10:07;;;;;;;;;;;1.50;99.90;;;;;;5054733;28;19966;-81
2021/12/18 14:12:33;;;;;;;;;;;1.50;99.90;;;;;;5054640;28;19924;-81
2021/12/18 14:14:59;;;;;;;;;;;1.40;99.90;;;;;;5054689;28;20414;-81
2021/12/18 14:17:25;;;;;;;;;;;1.60;99.90;;;;;;5054795;28;20546;-81
2021/12/18 14:19:53;;;;;;;;;;;1.70;99.90;;;;;;5056263;28;19920;-81
2021/12/18 14:22:26;;;;;;;;;;;1.80;99.90;;;;;;5055089;28;19920;-81
2021/12/18 14:25:00;;;;;;;;;;;1.80;99.90;;;;;;5054976;28;19909;-81
2021/12/18 14:27:36;;;;;;;;;;;1.90;99.90;;;;;;5055663;28;19951;-81
2021/12/18 14:30:02;;;;;;;;;;;1.90;99.90;;;;;;5054223;28;20322;-81
2021/12/18 14:32:28;;;;;;;;;;;2.00;99.90;;;;;;5054483;28;20211;-81
2021/12/18 14:35:01;;;;;;;;;;;1.90;99.90;;;;;;5054230;28;20009;-81
2021/12/18 14:37:26;;;;;;;;;;;1.70;99.90;;;;;;5055102;28;20353;-81
2021/12/18 14:39:53;;;;;;;;;;;1.70;99.90;;;;;;5056388;28;19909;-81
2021/12/18 14:45:03;;;;;;;;;;;1.80;99.90;;;;;;5059573;28;20269;-81
2021/12/18 14:47:33;;;;;;;;;;;1.80;99.90;;;;;;5057878;28;19924;-81
2021/12/18 14:49:58;;;;;;;;;;;1.90;99.90;;;;;;5060149;28;20279;-81
2021/12/18 14:52:24;;;;;;;;;;;1.80;99.90;;;;;;5059707;28;19910;-81
2021/12/18 14:54:51;;;;;;;;;;;1.70;99.90;;;;;;5073013;28;20099;-81
2021/12/18 14:57:21;;;;;;;;;;;1.60;99.90;;;;;;5078912;28;20289;-81
2021/12/18 14:59:47;;;;;;;;;;;1.50;99.90;;;;;;5078989;28;19991;-81
2021/12/18 15:02:12;;;;;;;;;;;1.40;99.90;;;;;;5078407;28;19940;-81
2021/12/18 15:04:38;;;;;;;;;;;1.40;99.90;;;;;;5078352;28;20333;-81
2021/12/18 15:07:03;;;;;;;;;;;1.40;99.90;;;;;;5063709;28;19931;-81
2021/12/18 15:09:29;;;;;;;;;;;1.30;99.90;;;;;;5057747;28;20427;-81
2021/12/18 15:11:58;;;;;;;;;;;1.20;99.90;;;;;;5058811;28;20294;-81
2021/12/18 15:14:30;;;;;;;;;;;1.00;99.90;;;;;;5056896;28;20281;-81
2021/12/18 15:17:11;;;;;;;;;;;0.80;99.90;;;;;;5057440;28;19924;-80
2021/12/18 15:19:37;;;;;;;;;;;0.70;99.90;;;;;;5059426;28;20034;-80
2021/12/18 15:22:04;;;;;;;;;;;0.50;99.90;;;;;;5058934;28;20346;-81
2021/12/18 15:24:30;;;;;;;;;;;0.60;99.90;;;;;;5058391;28;19909;-81
2021/12/18 15:26:57;;;;;;;;;;;0.70;99.90;;;;;;5057415;28;19936;-81
2021/12/18 15:29:23;;;;;;;;;;;0.70;99.90;;;;;;5056786;28;19916;-81